createdAt,value
2018-06-15T00:00:58.597Z,12.40
2018-06-15T00:04:02.890Z,11.43
2018-06-15T00:07:07.219Z,10.80
2018-06-15T00:10:11.501Z,10.73
2018-06-15T00:13:15.776Z,11.23
2018-06-15T00:16:20.087Z,9.70
2018-06-15T00:19:24.419Z,9.73
2018-06-15T00:22:28.692Z,9.70
2018-06-15T00:25:33.021Z,9.77
2018-06-15T00:28:37.329Z,10.40
2018-06-15T00:31:44.127Z,8.70
2018-06-15T00:34:48.485Z,8.73
2018-06-15T00:37:52.873Z,8.77
2018-06-15T00:40:57.142Z,7.53
2018-06-15T00:44:01.446Z,8.20
2018-06-15T00:47:06.316Z,8.17
2018-06-15T00:50:10.605Z,7.37
2018-06-15T00:53:14.901Z,6.70
2018-06-15T00:56:19.159Z,8.13
2018-06-15T00:59:25.796Z,7.23
2018-06-15T01:02:30.189Z,7.47
2018-06-15T01:05:34.530Z,6.43
2018-06-15T01:08:38.818Z,6.83
2018-06-15T01:11:42.943Z,6.90
2018-06-15T01:14:47.196Z,7.40
2018-06-15T01:17:51.470Z,6.17
2018-06-15T01:20:56.025Z,6.73
2018-06-15T01:24:00.692Z,6.97
2018-06-15T01:27:05.643Z,6.27
2018-06-15T01:30:10.375Z,6.97
2018-06-15T01:33:14.801Z,6.47
2018-06-15T01:36:19.277Z,6.77
2018-06-15T01:39:23.658Z,5.50
2018-06-15T01:42:28.021Z,5.90
2018-06-15T01:45:32.602Z,6.97
2018-06-15T01:48:37.012Z,6.13
2018-06-15T01:51:41.067Z,6.30
2018-06-15T01:54:45.355Z,5.80
2018-06-15T01:57:49.933Z,6.43
2018-06-15T02:00:54.229Z,5.97
2018-06-15T02:03:58.577Z,5.80
2018-06-15T02:07:02.841Z,6.37
2018-06-15T02:10:07.187Z,6.00
2018-06-15T02:13:11.441Z,4.80
2018-06-15T02:16:16.489Z,5.57
2018-06-15T02:19:20.828Z,5.93
2018-06-15T02:22:25.156Z,6.30
2018-06-15T02:25:29.744Z,5.73
2018-06-15T02:28:34.003Z,6.27
2018-06-15T02:31:38.325Z,6.57
2018-06-15T02:34:42.381Z,5.40
2018-06-15T02:37:46.644Z,6.10
2018-06-15T02:40:50.982Z,5.80
2018-06-15T02:43:55.267Z,5.50
2018-06-15T02:46:59.540Z,5.63
2018-06-15T02:50:04.004Z,5.20
2018-06-15T02:53:08.261Z,5.47
2018-06-15T02:56:12.612Z,6.00
2018-06-15T02:59:16.904Z,6.00
2018-06-15T03:02:21.230Z,6.17
2018-06-15T03:05:25.551Z,6.10
2018-06-15T03:08:29.696Z,6.30
2018-06-15T03:11:33.993Z,6.47
2018-06-15T03:14:38.310Z,6.23
2018-06-15T03:17:42.589Z,6.47
2018-06-15T03:20:46.845Z,6.10
2018-06-15T03:23:51.201Z,5.60
2018-06-15T03:26:55.499Z,5.00
2018-06-15T03:29:59.816Z,4.93
2018-06-15T03:33:04.141Z,4.70
2018-06-15T03:36:08.471Z,5.40
2018-06-15T03:39:13.385Z,5.47
2018-06-15T03:42:18.663Z,5.00
2018-06-15T03:45:25.210Z,4.07
2018-06-15T03:48:29.536Z,4.93
2018-06-15T03:51:35.344Z,4.90
2018-06-15T03:54:39.603Z,4.33
2018-06-15T03:57:43.932Z,4.30
2018-06-15T04:00:48.344Z,3.93
2018-06-15T04:03:52.768Z,5.10
2018-06-15T04:07:01.017Z,4.10
2018-06-15T04:10:05.332Z,5.53
2018-06-15T04:13:09.675Z,4.57
2018-06-15T04:16:14.049Z,4.50
2018-06-15T04:19:18.368Z,4.70
2018-06-15T04:22:22.714Z,4.97
2018-06-15T04:25:27.079Z,5.10
2018-06-15T04:28:31.434Z,4.20
2018-06-15T04:31:35.752Z,4.80
2018-06-15T04:34:40.174Z,5.13
2018-06-15T04:37:44.648Z,4.80
2018-06-15T04:40:48.928Z,4.23
2018-06-15T04:43:53.217Z,4.80
2018-06-15T04:46:57.584Z,4.37
2018-06-15T04:50:01.887Z,5.03
2018-06-15T04:53:06.439Z,4.83
2018-06-15T04:56:10.791Z,4.73
2018-06-15T04:59:15.147Z,4.53
2018-06-15T05:02:19.541Z,4.33
2018-06-15T05:05:23.996Z,5.20
2018-06-15T05:08:28.320Z,4.77
2018-06-15T05:11:32.701Z,5.33
2018-06-15T05:14:37.140Z,4.50
2018-06-15T05:17:41.492Z,5.40
2018-06-15T05:20:45.844Z,4.83
2018-06-15T05:23:50.095Z,4.63
2018-06-15T05:26:54.423Z,4.27
2018-06-15T05:29:58.692Z,4.57
2018-06-15T05:33:03.022Z,4.60
2018-06-15T05:36:07.318Z,4.23
2018-06-15T05:39:12.327Z,4.03
2018-06-15T05:42:16.667Z,4.20
2018-06-15T05:45:21.018Z,3.87
2018-06-15T05:48:25.315Z,3.73
2018-06-15T05:51:29.665Z,3.93
2018-06-15T05:54:33.945Z,4.50
2018-06-15T05:57:38.405Z,4.13
2018-06-15T06:00:42.754Z,4.70
2018-06-15T06:03:47.076Z,4.13
2018-06-15T06:06:51.324Z,3.80
2018-06-15T06:09:55.669Z,3.77
2018-06-15T06:12:59.691Z,4.40
2018-06-15T06:16:04.018Z,3.90
2018-06-15T06:19:08.308Z,4.37
2018-06-15T06:22:12.636Z,3.73
2018-06-15T06:25:17.021Z,3.43
2018-06-15T06:28:21.231Z,4.30
2018-06-15T06:31:25.585Z,3.40
2018-06-15T06:34:29.941Z,3.43
2018-06-15T06:37:34.242Z,3.17
2018-06-15T06:40:38.562Z,3.30
2018-06-15T06:43:42.909Z,3.40
2018-06-15T06:46:47.214Z,3.13
2018-06-15T06:49:51.513Z,3.40
2018-06-15T06:52:55.861Z,3.40
2018-06-15T06:56:00.258Z,2.77
2018-06-15T06:59:04.583Z,2.70
2018-06-15T07:02:08.873Z,2.63
2018-06-15T07:05:13.242Z,3.60
2018-06-15T07:08:17.581Z,2.40
2018-06-15T07:11:21.868Z,3.67
2018-06-15T07:14:26.181Z,2.93
2018-06-15T07:17:30.479Z,2.80
2018-06-15T07:20:34.729Z,2.63
2018-06-15T07:23:39.092Z,3.00
2018-06-15T07:26:43.379Z,2.60
2018-06-15T07:29:47.705Z,3.23
2018-06-15T07:32:52.020Z,3.13
2018-06-15T07:35:56.385Z,2.87
2018-06-15T07:39:00.752Z,2.83
2018-06-15T07:42:07.693Z,2.47
2018-06-15T07:45:11.965Z,2.60
2018-06-15T07:48:16.263Z,2.30
2018-06-15T07:51:20.631Z,2.47
2018-06-15T07:54:24.854Z,2.03
2018-06-15T07:57:29.128Z,2.57
2018-06-15T08:00:33.484Z,2.40
2018-06-15T08:03:37.753Z,2.10
2018-06-15T08:06:42.449Z,2.60
2018-06-15T08:09:46.749Z,2.63
2018-06-15T08:12:50.992Z,2.30
2018-06-15T08:15:55.399Z,2.37
2018-06-15T08:18:59.683Z,2.37
2018-06-15T08:22:03.998Z,2.50
2018-06-15T08:25:08.265Z,2.30
2018-06-15T08:28:12.528Z,2.30
2018-06-15T08:31:16.992Z,2.67
2018-06-15T08:34:21.356Z,2.53
2018-06-15T08:37:25.684Z,2.33
2018-06-15T08:40:29.969Z,2.20
2018-06-15T08:43:34.239Z,1.97
2018-06-15T08:46:38.927Z,2.40
2018-06-15T08:49:43.219Z,2.50
2018-06-15T08:52:47.663Z,2.27
2018-06-15T08:55:52.071Z,2.30
2018-06-15T08:58:56.475Z,2.73
2018-06-15T09:02:00.900Z,2.27
2018-06-15T09:05:05.190Z,2.53
2018-06-15T09:08:09.497Z,3.03
2018-06-15T09:11:13.821Z,1.97
2018-06-15T09:14:18.128Z,2.43
2018-06-15T09:17:22.452Z,3.00
2018-06-15T09:20:26.772Z,1.97
2018-06-15T09:23:31.093Z,2.40
2018-06-15T09:26:35.417Z,2.57
2018-06-15T09:29:39.699Z,2.00
2018-06-15T09:32:44.129Z,2.07
2018-06-15T09:35:49.364Z,2.30
2018-06-15T09:38:53.749Z,2.00
2018-06-15T09:41:58.065Z,2.53
2018-06-15T09:45:02.354Z,1.90
2018-06-15T09:48:07.238Z,2.57
2018-06-15T09:51:12.354Z,2.00
2018-06-15T09:54:16.644Z,2.17
2018-06-15T09:57:20.977Z,2.53
2018-06-15T10:00:30.621Z,2.17
2018-06-15T10:03:34.887Z,2.40
2018-06-15T10:06:39.242Z,2.00
2018-06-15T10:09:43.566Z,1.77
2018-06-15T10:12:47.876Z,1.77
2018-06-15T10:15:52.385Z,1.83
2018-06-15T10:18:57.956Z,2.30
2018-06-15T10:22:02.303Z,2.43
2018-06-15T10:25:06.598Z,2.23
2018-06-15T10:28:10.948Z,2.23
2018-06-15T10:31:15.313Z,2.50
2018-06-15T10:34:19.648Z,2.23
2018-06-15T10:37:24.011Z,1.67
2018-06-15T10:40:28.369Z,2.37
2018-06-15T10:43:32.713Z,2.00
2018-06-15T10:46:37.017Z,2.03
2018-06-15T10:49:41.309Z,1.90
2018-06-15T10:52:45.579Z,2.13
2018-06-15T10:55:49.924Z,2.00
2018-06-15T10:58:54.206Z,2.10
2018-06-15T11:01:58.524Z,1.77
2018-06-15T11:05:02.854Z,1.50
2018-06-15T11:08:07.173Z,2.10
2018-06-15T11:11:11.519Z,2.33
2018-06-15T11:14:15.787Z,1.73
2018-06-15T11:17:20.121Z,2.10
2018-06-15T11:20:24.449Z,2.37
2018-06-15T11:23:28.765Z,2.10
2018-06-15T11:26:33.117Z,2.40
2018-06-15T11:29:37.508Z,2.10
2018-06-15T11:32:41.820Z,2.10
2018-06-15T11:35:46.165Z,2.23
2018-06-15T11:38:50.442Z,2.57
2018-06-15T11:41:54.904Z,2.00
2018-06-15T11:44:59.175Z,2.10
2018-06-15T11:48:03.544Z,2.10
2018-06-15T11:51:08.036Z,2.10
2018-06-15T11:54:12.390Z,2.10
2018-06-15T11:57:16.696Z,2.00
2018-06-15T12:00:21.043Z,2.40
2018-06-15T12:03:25.324Z,1.70
2018-06-15T12:06:29.661Z,2.00
2018-06-15T12:09:33.924Z,2.27
2018-06-15T12:12:38.321Z,1.90
2018-06-15T12:15:42.601Z,2.27
2018-06-15T12:18:46.936Z,2.50
2018-06-15T12:21:51.512Z,2.20
2018-06-15T12:24:56.204Z,2.10
2018-06-15T12:28:00.511Z,1.93
2018-06-15T12:31:04.820Z,2.10
2018-06-15T12:34:11.945Z,2.00
2018-06-15T12:37:16.247Z,2.17
2018-06-15T12:40:20.515Z,2.17
2018-06-15T12:43:24.856Z,2.53
2018-06-15T12:46:29.213Z,2.33
2018-06-15T12:49:33.646Z,2.17
2018-06-15T12:52:38.091Z,1.90
2018-06-15T12:55:42.454Z,2.33
2018-06-15T12:58:46.769Z,2.47
2018-06-15T13:01:51.095Z,2.40
2018-06-15T13:04:55.384Z,2.20
2018-06-15T13:07:59.743Z,2.17
2018-06-15T13:11:04.311Z,2.37
2018-06-15T13:14:08.575Z,2.30
2018-06-15T13:17:12.711Z,2.17
2018-06-15T13:20:17.013Z,1.60
2018-06-15T13:23:21.284Z,2.17
2018-06-15T13:26:25.673Z,2.53
2018-06-15T13:29:29.965Z,2.13
2018-06-15T13:32:34.279Z,1.80
2018-06-15T13:35:38.772Z,1.77
2018-06-15T13:38:44.679Z,2.20
2018-06-15T13:41:49.464Z,2.13
2018-06-15T13:44:53.732Z,1.93
2018-06-15T13:47:58.884Z,2.63
2018-06-15T13:51:03.179Z,2.00
2018-06-15T13:54:07.522Z,1.93
2018-06-15T13:57:11.868Z,2.37
2018-06-15T14:00:16.112Z,2.20
2018-06-15T14:03:20.395Z,2.30
2018-06-15T14:06:24.717Z,2.20
2018-06-15T14:09:28.948Z,2.67
2018-06-15T14:12:33.302Z,2.10
2018-06-15T14:15:37.349Z,2.33
2018-06-15T14:18:41.625Z,2.40
2018-06-15T14:21:45.961Z,3.27
2018-06-15T14:24:50.072Z,2.13
2018-06-15T14:27:54.387Z,1.90
2018-06-15T14:30:58.692Z,1.90
2018-06-15T14:34:03.024Z,2.27
2018-06-15T14:37:07.351Z,2.23
2018-06-15T14:40:11.612Z,2.00
2018-06-15T14:43:15.979Z,2.33
2018-06-15T14:46:20.327Z,2.23
2018-06-15T14:49:25.026Z,2.60
2018-06-15T14:52:29.342Z,2.10
2018-06-15T14:55:33.672Z,2.37
2018-06-15T14:58:38.029Z,2.00
2018-06-15T15:01:42.288Z,2.10
2018-06-15T15:04:46.364Z,2.20
2018-06-15T15:07:50.639Z,2.40
2018-06-15T15:10:54.709Z,2.33
2018-06-15T15:13:58.983Z,2.10
2018-06-15T15:17:03.121Z,1.97
2018-06-15T15:20:07.396Z,1.93
2018-06-15T15:23:11.676Z,1.83
2018-06-15T15:26:15.956Z,2.10
2018-06-15T15:29:20.245Z,1.47
2018-06-15T15:32:24.560Z,2.30
2018-06-15T15:35:29.150Z,1.67
2018-06-15T15:38:33.530Z,2.10
2018-06-15T15:41:37.829Z,2.43
2018-06-15T15:44:42.155Z,1.97
2018-06-15T15:47:46.501Z,1.73
2018-06-15T15:50:50.888Z,1.80
2018-06-15T15:53:55.160Z,2.13
2018-06-15T15:56:59.573Z,3.00
2018-06-15T16:00:04.000Z,1.60
2018-06-15T16:03:08.393Z,2.37
2018-06-15T16:06:12.717Z,2.00
2018-06-15T16:09:16.983Z,1.90
2018-06-15T16:12:21.512Z,2.10
2018-06-15T16:15:25.851Z,1.90
2018-06-15T16:18:30.181Z,1.77
2018-06-15T16:21:34.473Z,1.67
2018-06-15T16:24:38.830Z,1.67
2018-06-15T16:27:43.134Z,1.70
2018-06-15T16:30:47.496Z,1.63
2018-06-15T16:33:51.906Z,2.20
2018-06-15T16:36:56.330Z,1.93
2018-06-15T16:40:00.637Z,2.00
2018-06-15T16:43:04.904Z,2.17
2018-06-15T16:46:09.309Z,1.83
2018-06-15T16:49:13.689Z,1.80
2018-06-15T16:52:17.966Z,1.70
2018-06-15T16:55:22.304Z,1.70
2018-06-15T16:58:26.590Z,1.90
2018-06-15T17:01:30.948Z,1.87
2018-06-15T17:04:35.298Z,1.63
2018-06-15T17:07:39.687Z,1.60
2018-06-15T17:10:44.037Z,1.77
2018-06-15T17:13:48.494Z,1.63
2018-06-15T17:16:52.894Z,1.70
2018-06-15T17:19:57.312Z,2.00
2018-06-15T17:23:01.767Z,1.90
2018-06-15T17:26:06.147Z,1.60
2018-06-15T17:29:10.434Z,1.80
2018-06-15T17:32:14.781Z,1.83
2018-06-15T17:35:19.167Z,2.23
2018-06-15T17:38:23.757Z,1.70
2018-06-15T17:41:28.056Z,2.00
2018-06-15T17:44:32.406Z,2.23
2018-06-15T17:47:36.693Z,1.90
2018-06-15T17:50:41.074Z,1.77
2018-06-15T17:53:45.696Z,2.10
2018-06-15T17:56:50.093Z,1.80
2018-06-15T17:59:54.415Z,1.73
2018-06-15T18:02:58.772Z,2.10
2018-06-15T18:06:03.102Z,1.77
2018-06-15T18:09:10.404Z,2.07
2018-06-15T18:12:14.830Z,2.10
2018-06-15T18:15:19.181Z,2.10
2018-06-15T18:18:23.427Z,1.93
2018-06-15T18:21:27.755Z,2.07
2018-06-15T18:24:32.086Z,2.20
2018-06-15T18:27:36.435Z,1.70
2018-06-15T18:30:40.848Z,2.07
2018-06-15T18:33:45.161Z,1.90
2018-06-15T18:36:49.517Z,1.73
2018-06-15T18:39:54.191Z,1.90
2018-06-15T18:42:58.511Z,2.03
2018-06-15T18:46:02.870Z,2.10
2018-06-15T18:49:07.617Z,2.00
2018-06-15T18:52:12.034Z,1.97
2018-06-15T18:55:16.734Z,1.90
2018-06-15T18:58:21.046Z,2.10
2018-06-15T19:01:25.647Z,1.90
2018-06-15T19:04:30.094Z,2.17
2018-06-15T19:07:34.552Z,2.30
2018-06-15T19:10:38.841Z,1.97
2018-06-15T19:13:44.324Z,2.20
2018-06-15T19:16:48.732Z,2.23
2018-06-15T19:19:53.021Z,2.20
2018-06-15T19:23:02.607Z,2.00
2018-06-15T19:26:06.861Z,2.37
2018-06-15T19:29:11.341Z,2.60
2018-06-15T19:32:15.739Z,3.20
2018-06-15T19:35:20.316Z,4.50
2018-06-15T19:38:24.667Z,4.67
2018-06-15T19:41:29.057Z,4.37
2018-06-15T19:44:33.437Z,3.60
2018-06-15T19:47:37.857Z,3.10
2018-06-15T19:50:42.254Z,3.57
2018-06-15T19:53:46.506Z,3.27
2018-06-15T19:56:50.886Z,3.63
2018-06-15T19:59:55.232Z,3.80
2018-06-15T20:02:59.640Z,4.13
2018-06-15T20:06:04.084Z,4.87
2018-06-15T20:09:09.223Z,4.37
2018-06-15T20:12:13.665Z,4.30
2018-06-15T20:15:18.040Z,6.00
2018-06-15T20:18:22.349Z,4.90
2018-06-15T20:21:26.596Z,4.37
2018-06-15T20:24:30.958Z,4.97
2018-06-15T20:27:35.219Z,4.47
2018-06-15T20:30:39.509Z,4.33
2018-06-15T20:33:43.848Z,4.57
2018-06-15T20:36:48.128Z,3.77
2018-06-15T20:39:52.500Z,4.33
2018-06-15T20:42:56.802Z,4.40
2018-06-15T20:46:01.107Z,4.50
2018-06-15T20:49:05.733Z,4.50
2018-06-15T20:52:10.321Z,4.53
2018-06-15T20:55:14.804Z,5.03
2018-06-15T20:58:19.335Z,4.90
2018-06-15T21:01:23.729Z,5.43
2018-06-15T21:04:28.035Z,7.23
2018-06-15T21:07:33.548Z,5.77
2018-06-15T21:10:38.091Z,4.87
2018-06-15T21:13:42.400Z,5.27
2018-06-15T21:16:46.797Z,5.20
2018-06-15T21:19:51.357Z,7.37
2018-06-15T21:22:55.731Z,7.47
2018-06-15T21:26:00.035Z,5.80
2018-06-15T21:29:04.879Z,5.13
2018-06-15T21:32:09.184Z,4.00
2018-06-15T21:35:13.614Z,4.30
2018-06-15T21:38:17.914Z,4.93
2018-06-15T21:41:22.253Z,4.50
2018-06-15T21:44:26.681Z,4.97
2018-06-15T21:47:31.081Z,5.23
2018-06-15T21:50:35.792Z,4.97
2018-06-15T21:53:40.085Z,4.80
2018-06-15T21:56:44.549Z,4.03
2018-06-15T21:59:48.798Z,3.43
2018-06-15T22:02:53.281Z,3.30
2018-06-15T22:05:57.657Z,3.03
2018-06-15T22:09:02.004Z,3.80
2018-06-15T22:12:06.346Z,4.17
2018-06-15T22:15:10.781Z,3.50
2018-06-15T22:18:15.062Z,4.43
2018-06-15T22:21:19.406Z,3.33
2018-06-15T22:24:24.155Z,4.33
2018-06-15T22:27:28.512Z,4.37
2018-06-15T22:30:32.848Z,3.53
2018-06-15T22:33:37.173Z,3.30
2018-06-15T22:36:41.987Z,2.87
2018-06-15T22:39:46.397Z,3.20
2018-06-15T22:42:50.758Z,3.10
2018-06-15T22:45:54.912Z,3.10
2018-06-15T22:48:59.343Z,2.97
2018-06-15T22:52:03.954Z,3.30
2018-06-15T22:55:08.539Z,3.87
2018-06-15T22:58:13.008Z,3.03
2018-06-15T23:01:17.422Z,3.30
2018-06-15T23:04:21.733Z,3.60
2018-06-15T23:07:26.161Z,3.37
2018-06-15T23:10:30.606Z,3.67
2018-06-15T23:13:35.129Z,4.13
2018-06-15T23:16:39.519Z,3.60
2018-06-15T23:19:44.070Z,3.63
2018-06-15T23:22:48.485Z,4.10
2018-06-15T23:25:52.843Z,3.50
2018-06-15T23:28:57.228Z,3.63
2018-06-15T23:32:02.413Z,4.67
2018-06-15T23:35:06.891Z,5.00
2018-06-15T23:38:11.297Z,5.80
2018-06-15T23:41:15.642Z,5.37
2018-06-15T23:44:20.015Z,5.13
2018-06-15T23:47:24.667Z,4.63
2018-06-15T23:50:29.108Z,4.70
2018-06-15T23:53:33.747Z,4.33
2018-06-15T23:56:38.070Z,4.13
2018-06-15T23:59:42.575Z,4.40
